createdAt,value
2022-10-15T00:02:13.088Z,16.13
2022-10-15T00:04:40.645Z,16.16
2022-10-15T00:07:08.347Z,16.10
2022-10-15T00:09:35.859Z,16.11
2022-10-15T00:12:03.955Z,16.11
2022-10-15T00:14:31.829Z,16.15
2022-10-15T00:17:00.663Z,16.21
2022-10-15T00:19:28.253Z,16.20
2022-10-15T00:21:55.769Z,16.15
2022-10-15T00:24:23.323Z,16.13
2022-10-15T00:26:50.909Z,16.14
2022-10-15T00:29:18.461Z,16.00
2022-10-15T00:31:45.975Z,15.99
2022-10-15T00:34:14.867Z,16.07
2022-10-15T00:36:42.593Z,16.11
2022-10-15T00:39:11.519Z,16.05
2022-10-15T00:41:43.501Z,15.96
2022-10-15T00:44:52.617Z,15.96
2022-10-15T00:47:26.060Z,15.96
2022-10-15T00:50:00.782Z,15.97
2022-10-15T00:52:33.868Z,16.00
2022-10-15T00:55:06.395Z,16.05
2022-10-15T00:57:35.156Z,16.10
2022-10-15T01:00:07.063Z,16.14
2022-10-15T01:02:34.944Z,16.04
2022-10-15T01:05:03.973Z,15.95
2022-10-15T01:07:31.452Z,16.01
2022-10-15T01:09:59.037Z,15.99
2022-10-15T01:12:37.000Z,15.96
2022-10-15T01:15:16.369Z,15.94
2022-10-15T01:17:49.255Z,15.92
2022-10-15T01:20:45.219Z,15.88
2022-10-15T01:24:06.457Z,15.94
2022-10-15T01:27:06.345Z,15.96
2022-10-15T01:29:59.974Z,15.94
2022-10-15T01:32:30.867Z,15.89
2022-10-15T01:35:06.813Z,15.89
2022-10-15T01:37:40.127Z,15.77
2022-10-15T01:40:12.134Z,15.82
2022-10-15T01:42:45.347Z,15.76
2022-10-15T01:45:20.322Z,15.83
2022-10-15T01:47:52.765Z,15.87
2022-10-15T01:50:23.684Z,15.92
2022-10-15T01:52:53.262Z,15.92
2022-10-15T01:55:22.037Z,15.86
2022-10-15T01:57:50.509Z,15.90
2022-10-15T02:00:18.454Z,15.86
2022-10-15T02:02:46.255Z,15.92
2022-10-15T02:05:18.974Z,15.84
2022-10-15T02:07:54.507Z,15.90
2022-10-15T02:10:28.742Z,15.86
2022-10-15T02:13:14.945Z,15.84
2022-10-15T02:15:52.372Z,15.79
2022-10-15T02:18:27.543Z,15.77
2022-10-15T02:20:59.742Z,15.78
2022-10-15T02:23:32.029Z,15.88
2022-10-15T02:26:00.473Z,15.82
2022-10-15T02:28:30.349Z,15.87
2022-10-15T02:30:59.585Z,15.89
2022-10-15T02:33:28.720Z,15.83
2022-10-15T02:35:59.906Z,15.80
2022-10-15T02:38:31.281Z,15.82
2022-10-15T02:40:59.632Z,15.76
2022-10-15T02:43:27.425Z,15.74
2022-10-15T02:45:54.933Z,15.82
2022-10-15T02:48:22.420Z,15.88
2022-10-15T02:50:49.884Z,15.90
2022-10-15T02:53:18.711Z,15.84
2022-10-15T02:55:46.985Z,15.89
2022-10-15T02:58:14.480Z,15.78
2022-10-15T03:00:42.013Z,15.86
2022-10-15T03:03:09.543Z,15.71
2022-10-15T03:05:37.272Z,15.59
2022-10-15T03:08:04.947Z,15.45
2022-10-15T03:10:33.722Z,15.47
2022-10-15T03:13:05.827Z,15.43
2022-10-15T03:15:33.805Z,15.54
2022-10-15T03:18:01.321Z,15.50
2022-10-15T03:20:28.861Z,15.56
2022-10-15T03:22:56.402Z,15.54
2022-10-15T03:25:24.232Z,15.52
2022-10-15T03:27:53.736Z,15.58
2022-10-15T03:30:21.500Z,15.67
2022-10-15T03:32:49.171Z,15.70
2022-10-15T03:35:16.996Z,15.73
2022-10-15T03:37:44.526Z,15.74
2022-10-15T03:40:13.722Z,15.76
2022-10-15T03:42:42.312Z,15.73
2022-10-15T03:45:11.860Z,15.79
2022-10-15T03:47:39.395Z,15.77
2022-10-15T03:50:07.229Z,15.72
2022-10-15T03:52:34.857Z,15.59
2022-10-15T03:55:02.324Z,15.53
2022-10-15T03:57:29.839Z,15.61
2022-10-15T03:59:57.396Z,15.57
2022-10-15T04:02:26.733Z,15.56
2022-10-15T04:04:55.549Z,15.54
2022-10-15T04:07:23.098Z,15.46
2022-10-15T04:09:51.060Z,15.48
2022-10-15T04:12:19.402Z,15.56
2022-10-15T04:14:46.873Z,15.43
2022-10-15T04:17:14.412Z,15.45
2022-10-15T04:19:46.722Z,15.42
2022-10-15T04:22:14.186Z,15.30
2022-10-15T04:24:41.682Z,15.17
2022-10-15T04:27:09.331Z,15.29
2022-10-15T04:29:36.842Z,15.38
2022-10-15T04:32:04.559Z,15.32
2022-10-15T04:34:32.144Z,15.31
2022-10-15T04:37:00.972Z,15.39
2022-10-15T04:39:28.445Z,15.45
2022-10-15T04:41:55.935Z,15.48
2022-10-15T04:44:23.455Z,15.48
2022-10-15T04:46:50.951Z,15.47
2022-10-15T04:49:18.601Z,15.46
2022-10-15T04:51:46.077Z,15.44
2022-10-15T04:54:15.176Z,15.47
2022-10-15T04:56:42.702Z,15.52
2022-10-15T04:59:10.262Z,15.39
2022-10-15T05:01:37.735Z,15.28
2022-10-15T05:04:05.578Z,15.30
2022-10-15T05:06:33.959Z,15.22
2022-10-15T05:09:01.992Z,15.27
2022-10-15T05:11:31.323Z,15.31
2022-10-15T05:13:59.912Z,15.30
2022-10-15T05:16:28.820Z,15.27
2022-10-15T05:18:58.537Z,15.21
2022-10-15T05:21:26.225Z,15.30
2022-10-15T05:23:53.713Z,15.31
2022-10-15T05:26:23.746Z,15.16
2022-10-15T05:28:53.161Z,15.13
2022-10-15T05:31:22.625Z,15.23
2022-10-15T05:33:51.279Z,15.25
2022-10-15T05:36:21.491Z,15.30
2022-10-15T05:38:51.063Z,15.38
2022-10-15T05:41:19.339Z,15.44
2022-10-15T05:43:48.345Z,15.38
2022-10-15T05:46:17.346Z,15.37
2022-10-15T05:48:49.591Z,15.49
2022-10-15T05:51:17.223Z,15.38
2022-10-15T05:53:46.173Z,15.42
2022-10-15T05:56:14.169Z,15.50
2022-10-15T05:58:41.674Z,15.34
2022-10-15T06:01:11.435Z,15.29
2022-10-15T06:03:40.921Z,15.40
2022-10-15T06:06:15.482Z,15.26
2022-10-15T06:08:43.110Z,15.14
2022-10-15T06:11:10.888Z,15.09
2022-10-15T06:13:39.614Z,15.10
2022-10-15T06:16:07.520Z,15.20
2022-10-15T06:18:35.228Z,15.29
2022-10-15T06:21:04.247Z,15.32
2022-10-15T06:23:31.788Z,15.37
2022-10-15T06:26:03.225Z,15.48
2022-10-15T06:28:30.766Z,15.55
2022-10-15T06:30:59.373Z,15.50
2022-10-15T06:33:26.892Z,15.49
2022-10-15T06:35:54.776Z,15.48
2022-10-15T06:38:24.843Z,15.46
2022-10-15T06:40:52.390Z,15.51
2022-10-15T06:43:19.876Z,15.59
2022-10-15T06:45:47.384Z,15.54
2022-10-15T06:48:14.938Z,15.56
2022-10-15T06:50:42.464Z,15.52
2022-10-15T06:53:10.038Z,15.63
2022-10-15T06:55:41.584Z,15.57
2022-10-15T06:58:09.126Z,15.57
2022-10-15T07:00:36.908Z,15.55
2022-10-15T07:03:05.740Z,15.38
2022-10-15T07:05:33.971Z,15.59
2022-10-15T07:08:02.130Z,15.57
2022-10-15T07:10:30.208Z,15.66
2022-10-15T07:13:00.349Z,15.82
2022-10-15T07:15:28.073Z,15.87
2022-10-15T07:18:01.056Z,15.87
2022-10-15T07:20:30.061Z,15.71
2022-10-15T07:22:58.601Z,15.82
2022-10-15T07:25:26.773Z,15.88
2022-10-15T07:27:55.362Z,15.84
2022-10-15T07:30:27.223Z,15.75
2022-10-15T07:32:56.482Z,15.69
2022-10-15T07:35:24.148Z,15.47
2022-10-15T07:37:51.669Z,15.59
2022-10-15T07:40:19.689Z,15.55
2022-10-15T07:42:54.716Z,15.57
2022-10-15T07:45:24.033Z,15.58
2022-10-15T07:47:51.566Z,15.85
2022-10-15T07:50:19.473Z,15.88
2022-10-15T07:52:47.385Z,15.83
2022-10-15T07:55:14.999Z,15.79
2022-10-15T07:57:42.512Z,15.83
2022-10-15T08:00:11.032Z,15.73
2022-10-15T08:02:40.524Z,15.72
2022-10-15T08:05:08.518Z,15.76
2022-10-15T08:07:36.325Z,15.95
2022-10-15T08:10:05.683Z,15.94
2022-10-15T08:12:33.221Z,15.88
2022-10-15T08:15:00.722Z,15.96
2022-10-15T08:17:28.235Z,16.04
2022-10-15T08:19:57.215Z,16.06
2022-10-15T08:22:25.021Z,16.04
2022-10-15T08:24:53.074Z,16.15
2022-10-15T08:27:21.313Z,16.15
2022-10-15T08:29:49.064Z,16.02
2022-10-15T08:32:16.556Z,16.08
2022-10-15T08:34:44.074Z,16.10
2022-10-15T08:39:47.002Z,16.26
2022-10-15T08:42:19.312Z,16.28
2022-10-15T08:44:50.940Z,16.20
2022-10-15T08:47:31.913Z,16.25
2022-10-15T08:50:01.242Z,16.09
2022-10-15T08:52:42.284Z,16.14
2022-10-15T08:55:12.563Z,16.08
2022-10-15T08:57:47.348Z,16.25
2022-10-15T09:00:20.094Z,16.36
2022-10-15T09:02:55.706Z,16.43
2022-10-15T09:05:31.000Z,16.49
2022-10-15T09:08:07.870Z,16.43
2022-10-15T09:10:42.780Z,16.41
2022-10-15T09:13:16.475Z,16.64
2022-10-15T09:15:52.057Z,16.88
2022-10-15T09:18:23.860Z,16.94
2022-10-15T09:20:52.163Z,16.94
2022-10-15T09:23:23.286Z,17.05
2022-10-15T09:25:58.066Z,16.87
2022-10-15T09:28:32.721Z,16.74
2022-10-15T09:31:00.884Z,16.61
2022-10-15T09:33:38.575Z,16.54
2022-10-15T09:36:19.413Z,16.79
2022-10-15T09:39:02.434Z,16.98
2022-10-15T09:41:43.416Z,16.91
2022-10-15T09:44:17.385Z,16.98
2022-10-15T09:46:49.262Z,17.07
2022-10-15T09:49:19.802Z,17.09
2022-10-15T09:51:54.755Z,17.12
2022-10-15T09:54:33.054Z,17.30
2022-10-15T09:57:00.564Z,17.40
2022-10-15T09:59:28.214Z,17.40
2022-10-15T10:02:00.783Z,17.48
2022-10-15T10:04:30.537Z,17.49
2022-10-15T10:07:00.230Z,17.43
2022-10-15T10:09:32.969Z,17.45
2022-10-15T10:12:02.528Z,17.60
2022-10-15T10:14:33.900Z,17.60
2022-10-15T10:17:19.625Z,17.57
2022-10-15T10:20:05.500Z,17.52
2022-10-15T10:22:46.515Z,17.64
2022-10-15T10:25:39.134Z,17.78
2022-10-15T10:28:17.590Z,17.91
2022-10-15T10:30:54.487Z,18.02
2022-10-15T10:33:27.614Z,18.14
2022-10-15T10:35:56.734Z,18.26
2022-10-15T10:38:27.452Z,18.38
2022-10-15T10:41:05.059Z,18.44
2022-10-15T10:43:38.943Z,18.37
2022-10-15T10:46:18.258Z,18.29
2022-10-15T10:48:48.074Z,18.20
2022-10-15T10:51:19.596Z,18.29
2022-10-15T10:53:53.864Z,18.25
2022-10-15T10:56:25.076Z,18.23
2022-10-15T10:59:01.026Z,18.17
2022-10-15T11:01:29.769Z,18.23
2022-10-15T11:03:57.350Z,18.01
2022-10-15T11:06:36.564Z,18.09
2022-10-15T11:09:16.190Z,18.27
2022-10-15T11:12:00.642Z,18.18
2022-10-15T11:14:36.018Z,18.19
2022-10-15T11:17:15.534Z,18.07
2022-10-15T11:20:12.323Z,18.08
2022-10-15T11:22:49.460Z,18.03
2022-10-15T11:25:29.830Z,18.24
2022-10-15T11:28:11.897Z,18.13
2022-10-15T11:30:49.649Z,18.23
2022-10-15T11:33:34.376Z,18.29
2022-10-15T11:36:17.733Z,18.16
2022-10-15T11:38:51.367Z,18.06
2022-10-15T11:41:37.416Z,18.02
2022-10-15T11:44:25.404Z,18.08
2022-10-15T11:47:09.732Z,18.15
2022-10-15T11:49:45.822Z,18.11
2022-10-15T11:52:25.852Z,18.06
2022-10-15T11:55:03.325Z,18.17
2022-10-15T11:57:33.679Z,18.28
2022-10-15T12:00:06.914Z,18.28
2022-10-15T12:02:37.589Z,18.31
2022-10-15T12:05:08.375Z,18.36
2022-10-15T12:07:41.018Z,18.34
2022-10-15T12:10:22.402Z,18.33
2022-10-15T12:12:58.448Z,18.32
2022-10-15T12:15:36.296Z,18.34
2022-10-15T12:18:11.376Z,18.42
2022-10-15T12:20:42.245Z,18.44
2022-10-15T12:23:24.856Z,18.41
2022-10-15T12:25:53.158Z,18.28
2022-10-15T12:28:23.394Z,18.20
2022-10-15T12:31:01.020Z,18.16
2022-10-15T12:33:37.637Z,18.13
2022-10-15T12:36:09.342Z,18.09
2022-10-15T12:38:39.442Z,18.20
2022-10-15T12:41:09.673Z,18.25
2022-10-15T12:43:41.950Z,18.30
2022-10-15T12:46:12.615Z,18.40
2022-10-15T12:48:42.916Z,18.46
2022-10-15T12:51:41.380Z,18.35
2022-10-15T12:54:35.946Z,18.44
2022-10-15T12:57:06.246Z,18.51
2022-10-15T12:59:56.267Z,18.55
2022-10-15T13:02:38.690Z,18.44
2022-10-15T13:05:08.821Z,18.49
2022-10-15T13:07:40.583Z,18.46
2022-10-15T13:10:20.346Z,18.61
2022-10-15T13:12:53.451Z,18.65
2022-10-15T13:15:24.135Z,18.61
2022-10-15T13:17:54.164Z,18.67
2022-10-15T13:20:35.300Z,18.67
2022-10-15T13:23:29.326Z,18.58
2022-10-15T13:26:19.755Z,18.68
2022-10-15T13:28:48.809Z,18.72
2022-10-15T13:31:24.675Z,18.67
2022-10-15T13:34:01.005Z,18.66
2022-10-15T13:36:32.787Z,18.66
2022-10-15T13:39:03.453Z,18.65
2022-10-15T13:41:34.616Z,18.69
2022-10-15T13:44:02.943Z,18.79
2022-10-15T13:46:32.325Z,18.89
2022-10-15T13:49:03.532Z,18.99
2022-10-15T13:51:39.270Z,19.07
2022-10-15T13:54:11.673Z,19.03
2022-10-15T13:56:47.892Z,19.00
2022-10-15T13:59:20.070Z,19.04
2022-10-15T14:01:49.674Z,19.07
2022-10-15T14:04:20.003Z,19.16
2022-10-15T14:06:57.113Z,19.16
2022-10-15T14:09:28.427Z,19.17
2022-10-15T14:12:00.662Z,19.22
2022-10-15T14:14:33.636Z,19.24
2022-10-15T14:17:03.573Z,19.23
2022-10-15T14:19:34.810Z,19.22
2022-10-15T14:22:03.347Z,19.22
2022-10-15T14:24:33.963Z,19.25
2022-10-15T14:27:07.770Z,19.21
2022-10-15T14:29:39.586Z,19.13
2022-10-15T14:32:22.556Z,19.09
2022-10-15T14:34:52.662Z,19.10
2022-10-15T14:37:48.170Z,19.03
2022-10-15T14:40:19.838Z,19.11
2022-10-15T14:42:49.531Z,19.23
2022-10-15T14:45:26.192Z,19.21
2022-10-15T14:47:56.719Z,19.09
2022-10-15T14:50:27.930Z,19.12
2022-10-15T14:52:56.292Z,19.15
2022-10-15T14:55:33.105Z,19.05
2022-10-15T14:58:02.838Z,19.03
2022-10-15T15:00:34.382Z,18.99
2022-10-15T15:03:06.109Z,18.91
2022-10-15T15:05:45.441Z,18.97
2022-10-15T15:08:13.468Z,18.95
2022-10-15T15:10:41.876Z,18.83
2022-10-15T15:13:12.729Z,18.84
2022-10-15T15:15:41.322Z,18.84
2022-10-15T15:18:10.725Z,18.88
2022-10-15T15:20:40.786Z,18.84
2022-10-15T15:23:13.218Z,18.77
2022-10-15T15:25:41.138Z,18.79
2022-10-15T15:28:13.870Z,18.90
2022-10-15T15:30:43.567Z,18.87
2022-10-15T15:33:12.399Z,18.89
2022-10-15T15:35:50.562Z,18.79
2022-10-15T15:38:18.778Z,18.63
2022-10-15T15:40:46.548Z,18.71
2022-10-15T15:43:16.775Z,18.92
2022-10-15T15:45:44.822Z,18.95
2022-10-15T15:48:12.347Z,19.04
2022-10-15T15:50:41.403Z,19.15
2022-10-15T15:53:11.809Z,19.16
2022-10-15T15:55:39.377Z,19.24
2022-10-15T15:58:06.871Z,19.16
2022-10-15T16:00:34.380Z,19.12
2022-10-15T16:03:01.878Z,19.09
2022-10-15T16:05:29.373Z,19.16
2022-10-15T16:07:59.081Z,19.05
2022-10-15T16:10:26.673Z,19.08
2022-10-15T16:12:55.815Z,19.03
2022-10-15T16:15:25.767Z,19.10
2022-10-15T16:17:53.255Z,19.01
2022-10-15T16:20:21.616Z,18.98
2022-10-15T16:22:50.721Z,18.97
2022-10-15T16:25:20.053Z,18.83
2022-10-15T16:27:48.723Z,18.73
2022-10-15T16:30:17.226Z,18.79
2022-10-15T16:32:44.682Z,18.70
2022-10-15T16:35:12.310Z,18.62
2022-10-15T16:37:39.883Z,18.57
2022-10-15T16:40:08.981Z,18.59
2022-10-15T16:42:37.780Z,18.50
2022-10-15T16:45:06.066Z,18.54
2022-10-15T16:47:33.859Z,18.21
2022-10-15T16:50:01.567Z,18.33
2022-10-15T16:52:29.217Z,18.24
2022-10-15T16:54:56.725Z,18.30
2022-10-15T16:57:24.224Z,18.14
2022-10-15T16:59:53.084Z,18.07
2022-10-15T17:02:20.546Z,18.04
2022-10-15T17:04:48.033Z,17.91
2022-10-15T17:07:15.879Z,17.85
2022-10-15T17:09:44.771Z,17.88
2022-10-15T17:12:12.382Z,17.99
2022-10-15T17:14:40.167Z,17.98
2022-10-15T17:17:08.990Z,17.99
2022-10-15T17:19:36.480Z,17.98
2022-10-15T17:22:03.940Z,18.00
2022-10-15T17:24:31.615Z,17.97
2022-10-15T17:26:59.102Z,17.92
2022-10-15T17:29:29.256Z,17.83
2022-10-15T17:32:01.663Z,17.71
2022-10-15T17:34:30.745Z,17.79
2022-10-15T17:36:58.225Z,17.77
2022-10-15T17:39:25.754Z,17.71
2022-10-15T17:41:53.270Z,17.71
2022-10-15T17:44:21.053Z,17.76
2022-10-15T17:49:21.242Z,17.72
2022-10-15T17:51:50.036Z,17.88
2022-10-15T17:54:18.063Z,17.88
2022-10-15T17:56:45.570Z,17.88
2022-10-15T17:59:13.904Z,17.87
2022-10-15T18:01:59.841Z,17.91
2022-10-15T18:04:28.593Z,17.86
2022-10-15T18:06:57.555Z,17.85
2022-10-15T18:09:25.652Z,17.86
2022-10-15T18:11:53.157Z,17.85
2022-10-15T18:16:53.795Z,17.87
2022-10-15T18:19:21.282Z,17.87
2022-10-15T18:21:49.891Z,17.88
2022-10-15T18:24:21.731Z,17.83
2022-10-15T18:26:49.858Z,17.83
2022-10-15T18:29:17.601Z,17.84
2022-10-15T18:31:45.093Z,17.82
2022-10-15T18:34:12.568Z,17.79
2022-10-15T18:36:42.266Z,17.77
2022-10-15T18:39:10.158Z,17.78
2022-10-15T18:41:40.139Z,17.64
2022-10-15T18:44:15.975Z,17.56
2022-10-15T18:46:44.923Z,17.53
2022-10-15T18:49:13.990Z,17.46
2022-10-15T18:51:42.168Z,17.47
2022-10-15T18:54:10.724Z,17.35
2022-10-15T18:56:39.852Z,17.27
2022-10-15T18:59:08.106Z,17.29
2022-10-15T19:01:38.775Z,17.30
2022-10-15T19:04:08.305Z,17.38
2022-10-15T19:06:37.563Z,17.29
2022-10-15T19:09:07.037Z,17.28
2022-10-15T19:11:35.886Z,17.21
2022-10-15T19:14:05.146Z,17.25
2022-10-15T19:16:32.815Z,17.19
2022-10-15T19:19:01.480Z,17.33
2022-10-15T19:21:29.101Z,17.24
2022-10-15T19:23:56.586Z,17.31
2022-10-15T19:26:24.072Z,17.34
2022-10-15T19:28:53.417Z,17.31
2022-10-15T19:31:24.829Z,17.30
2022-10-15T19:33:52.586Z,17.18
2022-10-15T19:36:21.990Z,17.17
2022-10-15T19:38:49.831Z,16.98
2022-10-15T19:41:17.437Z,17.14
2022-10-15T19:43:45.126Z,16.96
2022-10-15T19:46:12.936Z,16.83
2022-10-15T19:48:41.772Z,16.67
2022-10-15T19:51:09.388Z,16.62
2022-10-15T19:53:37.476Z,16.49
2022-10-15T19:56:07.109Z,16.41
2022-10-15T19:58:35.611Z,16.49
2022-10-15T20:01:03.486Z,16.46
2022-10-15T20:03:31.301Z,16.42
2022-10-15T20:06:00.324Z,16.35
2022-10-15T20:08:27.797Z,16.39
2022-10-15T20:10:55.850Z,16.37
2022-10-15T20:13:24.513Z,16.41
2022-10-15T20:15:54.426Z,16.41
2022-10-15T20:18:22.984Z,16.39
2022-10-15T20:20:50.774Z,16.34
2022-10-15T20:23:19.638Z,16.36
2022-10-15T20:25:47.513Z,16.36
2022-10-15T20:28:18.078Z,16.36
2022-10-15T20:30:47.119Z,16.36
2022-10-15T20:33:14.936Z,16.25
2022-10-15T20:35:42.579Z,16.22
2022-10-15T20:38:10.076Z,16.09
2022-10-15T20:40:41.197Z,16.01
2022-10-15T20:43:08.845Z,15.98
2022-10-15T20:45:43.002Z,15.88
2022-10-15T20:48:16.452Z,16.04
2022-10-15T20:50:44.055Z,15.99
2022-10-15T20:53:11.733Z,16.00
2022-10-15T20:55:40.684Z,16.11
2022-10-15T20:58:08.412Z,15.99
2022-10-15T21:00:37.873Z,15.90
2022-10-15T21:03:05.355Z,15.93
2022-10-15T21:05:32.873Z,15.85
2022-10-15T21:08:00.938Z,15.75
2022-10-15T21:10:28.468Z,15.79
2022-10-15T21:12:57.330Z,15.80
2022-10-15T21:15:24.836Z,15.86
2022-10-15T21:17:52.359Z,15.92
2022-10-15T21:20:19.883Z,15.92
2022-10-15T21:22:47.389Z,15.89
2022-10-15T21:25:14.978Z,16.00
2022-10-15T21:27:42.478Z,15.94
2022-10-15T21:30:11.983Z,16.05
2022-10-15T21:32:39.505Z,15.97
2022-10-15T21:35:07.893Z,15.83
2022-10-15T21:37:36.438Z,15.75
2022-10-15T21:40:04.616Z,15.76
2022-10-15T21:42:32.377Z,15.80
2022-10-15T21:44:59.900Z,15.88
2022-10-15T21:47:29.123Z,15.92
2022-10-15T21:49:56.799Z,15.90
2022-10-15T21:52:24.372Z,15.96
2022-10-15T21:54:51.841Z,15.90
2022-10-15T21:57:19.310Z,15.92
2022-10-15T21:59:46.835Z,15.87
2022-10-15T22:02:15.068Z,15.86
2022-10-15T22:04:44.177Z,15.95
2022-10-15T22:07:12.230Z,15.90
2022-10-15T22:09:39.704Z,16.01
2022-10-15T22:12:07.254Z,16.13
2022-10-15T22:14:35.215Z,16.13
2022-10-15T22:17:02.715Z,16.03
2022-10-15T22:19:30.426Z,16.01
2022-10-15T22:21:59.307Z,16.02
2022-10-15T22:24:26.835Z,16.08
2022-10-15T22:26:54.812Z,16.01
2022-10-15T22:29:24.638Z,15.90
2022-10-15T22:31:53.108Z,15.89
2022-10-15T22:34:21.892Z,15.88
2022-10-15T22:36:49.612Z,15.89
2022-10-15T22:39:19.688Z,15.85
2022-10-15T22:41:48.444Z,15.73
2022-10-15T22:44:17.814Z,15.75
2022-10-15T22:46:48.918Z,15.72
2022-10-15T22:49:17.193Z,15.84
2022-10-15T22:51:44.895Z,15.84
2022-10-15T22:54:12.589Z,15.82
2022-10-15T22:56:41.469Z,15.92
2022-10-15T22:59:12.183Z,15.83
2022-10-15T23:01:39.865Z,15.72
2022-10-15T23:04:08.661Z,15.75
2022-10-15T23:06:37.734Z,15.70
2022-10-15T23:09:06.496Z,15.71
2022-10-15T23:11:35.451Z,15.84
2022-10-15T23:14:07.764Z,15.82
2022-10-15T23:16:36.644Z,15.84
2022-10-15T23:19:06.418Z,15.82
2022-10-15T23:21:36.604Z,15.72
2022-10-15T23:24:05.945Z,15.75
2022-10-15T23:26:33.984Z,15.64
2022-10-15T23:29:05.068Z,15.75
2022-10-15T23:31:36.125Z,15.70
2022-10-15T23:34:05.494Z,15.71
2022-10-15T23:36:34.455Z,15.74
2022-10-15T23:39:04.292Z,15.73
2022-10-15T23:41:33.714Z,15.71
2022-10-15T23:44:01.342Z,15.70
2022-10-15T23:46:30.160Z,15.65
2022-10-15T23:48:57.818Z,15.62
2022-10-15T23:51:27.129Z,15.62
2022-10-15T23:53:56.070Z,15.60
2022-10-15T23:56:24.256Z,15.59
2022-10-15T23:58:53.806Z,15.67
